createdAt,value
2022-12-12T00:00:15.485Z,-0.70
2022-12-12T00:04:17.419Z,-0.70
2022-12-12T00:08:19.245Z,-0.70
2022-12-12T00:12:21.079Z,-0.80
2022-12-12T00:16:23.273Z,-0.90
2022-12-12T00:20:25.187Z,-0.80
2022-12-12T00:24:26.992Z,-0.70
2022-12-12T00:28:29.087Z,-0.70
2022-12-12T00:32:30.952Z,-0.70
2022-12-12T00:36:33.379Z,-0.70
2022-12-12T00:40:35.818Z,-0.70
2022-12-12T00:44:37.654Z,-0.70
2022-12-12T00:48:39.490Z,-0.70
2022-12-12T00:52:41.305Z,-0.80
2022-12-12T00:56:43.088Z,-0.70
2022-12-12T01:00:44.953Z,-0.70
2022-12-12T01:04:46.799Z,-0.70
2022-12-12T01:08:48.723Z,-0.70
2022-12-12T01:12:50.520Z,-0.70
2022-12-12T01:16:52.354Z,-0.80
2022-12-12T01:20:54.433Z,-0.70
2022-12-12T01:24:57.089Z,-0.60
2022-12-12T01:28:58.874Z,-0.60
2022-12-12T01:33:00.862Z,-0.60
2022-12-12T01:37:02.717Z,-0.50
2022-12-12T01:41:04.785Z,-0.40
2022-12-12T01:45:07.405Z,-0.40
2022-12-12T01:49:25.338Z,-0.50
2022-12-12T01:53:27.268Z,-0.50
2022-12-12T01:57:41.040Z,-0.50
2022-12-12T02:01:43.008Z,-0.50
2022-12-12T02:05:52.335Z,-0.60
2022-12-12T02:10:00.344Z,-0.50
2022-12-12T02:14:02.152Z,-0.60
2022-12-12T02:18:21.295Z,-0.60
2022-12-12T02:23:00.153Z,-0.60
2022-12-12T02:27:25.309Z,-0.50
2022-12-12T02:31:33.152Z,-0.60
2022-12-12T02:35:54.138Z,-0.60
2022-12-12T02:40:13.873Z,-0.60
2022-12-12T02:44:42.211Z,-0.60
2022-12-12T02:49:06.738Z,-0.60
2022-12-12T02:53:08.747Z,-0.60
2022-12-12T02:57:18.494Z,-0.60
2022-12-12T03:02:27.718Z,-0.70
2022-12-12T03:07:35.705Z,-0.70
2022-12-12T03:11:49.682Z,-0.80
2022-12-12T03:16:27.760Z,-0.70
2022-12-12T03:21:14.668Z,-0.70
2022-12-12T03:25:28.646Z,-0.70
2022-12-12T03:29:39.486Z,-0.70
2022-12-12T03:33:59.139Z,-0.70
2022-12-12T03:38:26.709Z,-0.70
2022-12-12T03:42:43.276Z,-0.70
2022-12-12T03:47:20.417Z,-0.60
2022-12-12T03:51:27.745Z,-0.50
2022-12-12T03:55:34.568Z,-0.50
2022-12-12T03:59:59.508Z,-0.50
2022-12-12T04:04:16.646Z,-0.50
2022-12-12T04:08:18.522Z,-0.50
2022-12-12T04:12:58.617Z,-0.50
2022-12-12T04:17:00.803Z,-0.40
2022-12-12T04:21:52.040Z,-0.40
2022-12-12T04:26:29.011Z,-0.40
2022-12-12T04:30:31.358Z,-0.50
2022-12-12T04:35:19.577Z,-0.50
2022-12-12T04:39:21.446Z,-0.50
2022-12-12T04:43:29.004Z,-0.50
2022-12-12T04:47:30.859Z,-0.60
2022-12-12T04:51:36.732Z,-0.60
2022-12-12T04:55:41.727Z,-0.50
2022-12-12T04:59:43.894Z,-0.60
2022-12-12T05:03:59.733Z,-0.60
2022-12-12T05:08:07.672Z,-0.50
2022-12-12T05:12:09.669Z,-0.50
2022-12-12T05:16:20.249Z,-0.50
2022-12-12T05:20:22.093Z,-0.50
2022-12-12T05:24:23.876Z,-0.50
2022-12-12T05:28:25.728Z,-0.50
2022-12-12T05:32:27.492Z,-0.50
2022-12-12T05:36:29.459Z,-0.50
2022-12-12T05:40:31.297Z,-0.50
2022-12-12T05:44:33.161Z,-0.50
2022-12-12T05:48:35.069Z,-0.50
2022-12-12T05:52:36.945Z,-0.60
2022-12-12T05:56:38.679Z,-0.60
2022-12-12T06:00:40.560Z,-0.50
2022-12-12T06:04:42.556Z,-0.50
2022-12-12T06:08:44.661Z,-0.50
2022-12-12T06:12:46.799Z,-0.50
2022-12-12T06:16:48.731Z,-0.50
2022-12-12T06:20:51.004Z,-0.50
2022-12-12T06:24:53.253Z,-0.50
2022-12-12T06:28:55.802Z,-0.50
2022-12-12T06:32:58.812Z,-0.60
2022-12-12T06:37:01.776Z,-0.60
2022-12-12T06:41:13.984Z,-0.60
2022-12-12T06:45:17.266Z,-0.50
2022-12-12T06:49:21.408Z,-0.60
2022-12-12T06:53:23.604Z,-0.60
2022-12-12T06:57:25.817Z,-0.50
2022-12-12T07:01:27.905Z,-0.50
2022-12-12T07:05:30.182Z,-0.50
2022-12-12T07:09:32.298Z,-0.50
2022-12-12T07:13:34.267Z,-0.50
2022-12-12T07:17:36.169Z,-0.40
2022-12-12T07:21:40.626Z,-0.40
2022-12-12T07:25:44.692Z,-0.30
2022-12-12T07:29:47.016Z,-0.40
2022-12-12T07:33:48.941Z,-0.40
2022-12-12T07:37:50.837Z,-0.40
2022-12-12T07:41:55.183Z,-0.40
2022-12-12T07:45:57.016Z,-0.30
2022-12-12T07:49:58.821Z,-0.30
2022-12-12T07:54:00.931Z,-0.30
2022-12-12T07:58:02.726Z,-0.40
2022-12-12T08:02:04.595Z,-0.30
2022-12-12T08:06:07.290Z,-0.30
2022-12-12T08:10:09.622Z,-0.20
2022-12-12T08:14:13.266Z,-0.20
2022-12-12T08:18:15.255Z,-0.30
2022-12-12T08:22:17.081Z,-0.30
2022-12-12T08:26:19.118Z,-0.30
2022-12-12T08:30:21.974Z,-0.30
2022-12-12T08:34:25.225Z,-0.20
2022-12-12T08:38:27.140Z,-0.20
2022-12-12T08:42:29.191Z,-0.10
2022-12-12T08:46:31.127Z,-0.10
2022-12-12T08:50:33.860Z,-0.20
2022-12-12T08:54:37.657Z,-0.10
2022-12-12T08:58:39.667Z,-0.10
2022-12-12T09:02:41.856Z,-0.20
2022-12-12T09:06:47.721Z,-0.10
2022-12-12T09:10:50.623Z,0.00
2022-12-12T09:14:52.525Z,0.10
2022-12-12T09:18:56.683Z,0.00
2022-12-12T09:22:59.102Z,0.20
2022-12-12T09:27:01.031Z,0.10
2022-12-12T09:31:10.179Z,0.30
2022-12-12T09:35:12.406Z,0.40
2022-12-12T09:39:14.688Z,0.40
2022-12-12T09:43:26.123Z,0.40
2022-12-12T09:47:49.782Z,0.50
2022-12-12T09:51:51.683Z,0.50
2022-12-12T09:56:23.395Z,0.40
2022-12-12T10:00:25.200Z,0.40
2022-12-12T10:05:02.764Z,0.50
2022-12-12T10:09:26.185Z,0.50
2022-12-12T10:13:29.381Z,0.50
2022-12-12T10:17:44.344Z,0.50
2022-12-12T10:21:46.574Z,0.50
2022-12-12T10:26:30.716Z,0.50
2022-12-12T10:30:32.494Z,0.40
2022-12-12T10:35:03.196Z,0.40
2022-12-12T10:39:23.162Z,0.50
2022-12-12T10:44:01.788Z,0.50
2022-12-12T10:48:03.707Z,0.50
2022-12-12T10:52:11.668Z,0.50
2022-12-12T10:56:21.823Z,0.40
2022-12-12T11:00:33.690Z,0.60
2022-12-12T11:04:35.511Z,0.70
2022-12-12T11:08:37.608Z,0.60
2022-12-12T11:12:39.588Z,0.70
2022-12-12T11:16:43.228Z,0.70
2022-12-12T11:21:01.347Z,0.70
2022-12-12T11:25:03.518Z,0.60
2022-12-12T11:29:08.232Z,0.70
2022-12-12T11:33:19.274Z,0.70
2022-12-12T11:37:24.270Z,0.60
2022-12-12T11:41:26.133Z,0.60
2022-12-12T11:45:28.091Z,0.50
2022-12-12T11:49:32.321Z,0.60
2022-12-12T11:53:43.869Z,0.60
2022-12-12T11:58:55.090Z,0.60
2022-12-12T12:03:22.516Z,0.50
2022-12-12T12:07:39.214Z,0.60
2022-12-12T12:12:18.776Z,0.60
2022-12-12T12:17:29.521Z,0.60
2022-12-12T12:22:14.559Z,0.70
2022-12-12T12:26:42.310Z,0.70
2022-12-12T12:31:24.074Z,0.70
2022-12-12T12:35:30.102Z,0.80
2022-12-12T12:40:12.107Z,0.90
2022-12-12T12:44:34.833Z,0.90
2022-12-12T12:48:40.909Z,1.00
2022-12-12T12:52:55.252Z,1.10
2022-12-12T12:57:13.809Z,1.10
2022-12-12T13:01:19.687Z,1.20
2022-12-12T13:05:46.566Z,1.10
2022-12-12T13:10:15.651Z,1.10
2022-12-12T13:14:46.586Z,1.00
2022-12-12T13:18:55.118Z,1.00
2022-12-12T13:23:27.132Z,1.10
2022-12-12T13:27:41.211Z,1.00
2022-12-12T13:32:10.307Z,1.00
2022-12-12T13:36:24.597Z,0.90
2022-12-12T13:40:39.049Z,0.80
2022-12-12T13:44:45.192Z,0.80
2022-12-12T13:49:23.671Z,0.90
2022-12-12T13:53:25.508Z,0.80
2022-12-12T13:57:42.295Z,0.90
2022-12-12T14:01:44.135Z,1.00
2022-12-12T14:05:50.626Z,0.90
2022-12-12T14:09:54.372Z,0.80
2022-12-12T14:14:08.945Z,0.80
2022-12-12T14:18:28.498Z,0.80
2022-12-12T14:22:37.823Z,0.80
2022-12-12T14:26:39.624Z,0.70
2022-12-12T14:30:48.207Z,0.60
2022-12-12T14:35:18.968Z,0.60
2022-12-12T14:39:45.763Z,0.50
2022-12-12T14:44:36.122Z,0.60
2022-12-12T14:48:30.462Z,0.50
2022-12-12T14:52:32.295Z,0.40
2022-12-12T14:56:47.620Z,0.30
2022-12-12T15:00:57.038Z,0.20
2022-12-12T15:05:04.911Z,0.20
2022-12-12T15:09:26.699Z,0.10
2022-12-12T15:13:28.696Z,0.10
2022-12-12T15:17:32.488Z,0.00
2022-12-12T15:21:34.387Z,-0.20
2022-12-12T15:25:47.973Z,-0.40
2022-12-12T15:29:49.804Z,-0.50
2022-12-12T15:33:51.734Z,-0.60
2022-12-12T15:38:07.309Z,-0.70
2022-12-12T15:42:12.072Z,-0.70
2022-12-12T15:46:14.838Z,-0.80
2022-12-12T15:50:21.504Z,-0.80
2022-12-12T15:54:25.472Z,-0.80
2022-12-12T15:58:33.461Z,-0.70
2022-12-12T16:02:40.920Z,-0.80
2022-12-12T16:06:44.778Z,-0.80
2022-12-12T16:10:52.577Z,-0.80
2022-12-12T16:14:54.461Z,-0.70
2022-12-12T16:19:07.342Z,-0.80
2022-12-12T16:23:45.116Z,-0.80
2022-12-12T16:28:09.790Z,-0.90
2022-12-12T16:32:14.974Z,-0.90
2022-12-12T16:36:16.914Z,-1.00
2022-12-12T16:40:20.135Z,-0.90
2022-12-12T16:44:22.369Z,-0.90
2022-12-12T16:48:43.286Z,-0.90
2022-12-12T16:52:45.286Z,-0.80
2022-12-12T16:56:57.350Z,-0.80
2022-12-12T17:01:00.452Z,-0.80
2022-12-12T17:05:20.871Z,-0.70
2022-12-12T17:09:29.808Z,-0.70
2022-12-12T17:13:33.999Z,-0.70
2022-12-12T17:17:47.661Z,-0.80
2022-12-12T17:21:49.719Z,-0.70
2022-12-12T17:25:53.690Z,-0.70
2022-12-12T17:30:02.377Z,-0.70
2022-12-12T17:34:05.795Z,-0.70
2022-12-12T17:38:15.905Z,-0.70
2022-12-12T17:42:18.641Z,-0.70
2022-12-12T17:46:21.107Z,-0.70
2022-12-12T17:50:23.199Z,-0.70
2022-12-12T17:54:25.393Z,-0.80
2022-12-12T17:58:35.141Z,-0.80
2022-12-12T18:02:42.474Z,-0.70
2022-12-12T18:06:51.460Z,-0.70
2022-12-12T18:10:53.695Z,-0.70
2022-12-12T18:15:03.867Z,-0.70
2022-12-12T18:19:47.320Z,-0.70
2022-12-12T18:23:58.036Z,-0.80
2022-12-12T18:28:05.541Z,-0.70
2022-12-12T18:32:10.650Z,-0.70
2022-12-12T18:36:20.395Z,-0.70
2022-12-12T18:40:25.415Z,-0.70
2022-12-12T18:44:27.509Z,-0.80
2022-12-12T18:48:40.015Z,-0.70
2022-12-12T18:52:50.694Z,-0.80
2022-12-12T18:56:58.787Z,-0.70
2022-12-12T19:01:09.642Z,-0.80
2022-12-12T19:05:13.436Z,-0.70
2022-12-12T19:09:17.533Z,-0.70
2022-12-12T19:13:19.742Z,-0.80
2022-12-12T19:17:26.696Z,-0.80
2022-12-12T19:21:33.787Z,-0.80
2022-12-12T19:25:43.389Z,-0.80
2022-12-12T19:29:46.046Z,-0.80
2022-12-12T19:33:48.559Z,-0.70
2022-12-12T19:37:50.836Z,-0.70
2022-12-12T19:41:53.273Z,-0.70
2022-12-12T19:46:12.020Z,-0.60
2022-12-12T19:50:17.364Z,-0.60
2022-12-12T19:54:23.070Z,-0.70
2022-12-12T19:58:33.874Z,-0.60
2022-12-12T20:02:40.074Z,-0.60
2022-12-12T20:06:45.376Z,-0.60
2022-12-12T20:10:47.245Z,-0.60
2022-12-12T20:14:49.223Z,-0.70
2022-12-12T20:18:52.967Z,-0.70
2022-12-12T20:22:54.880Z,-0.70
2022-12-12T20:26:57.060Z,-0.70
2022-12-12T20:31:14.000Z,-0.80
2022-12-12T20:35:16.140Z,-0.90
2022-12-12T20:39:23.293Z,-0.90
2022-12-12T20:43:25.393Z,-0.90
2022-12-12T20:47:27.387Z,-0.90
2022-12-12T20:55:54.187Z,-0.80
2022-12-12T20:59:56.107Z,-0.80
2022-12-12T21:03:59.203Z,-0.80
2022-12-12T21:08:03.852Z,-0.80
2022-12-12T21:12:06.046Z,-0.90
2022-12-12T21:16:32.632Z,-0.90
2022-12-12T21:20:34.475Z,-0.80
2022-12-12T21:24:36.283Z,-0.80
2022-12-12T21:28:39.007Z,-0.90
2022-12-12T21:32:40.937Z,-0.80
2022-12-12T21:36:42.982Z,-0.80
2022-12-12T21:40:47.513Z,-0.80
2022-12-12T21:44:49.341Z,-0.90
2022-12-12T21:49:11.399Z,-0.80
2022-12-12T21:53:31.856Z,-0.80
2022-12-12T21:57:33.751Z,-0.80
2022-12-12T22:01:35.656Z,-0.70
2022-12-12T22:05:37.590Z,-0.80
2022-12-12T22:09:40.154Z,-0.80
2022-12-12T22:13:42.645Z,-0.80
2022-12-12T22:17:44.635Z,-0.80
2022-12-12T22:21:47.599Z,-0.90
2022-12-12T22:25:49.488Z,-0.90
2022-12-12T22:29:51.371Z,-0.90
2022-12-12T22:33:59.544Z,-0.90
2022-12-12T22:38:01.688Z,-0.90
2022-12-12T22:42:03.854Z,-0.80
2022-12-12T22:46:07.244Z,-0.80
2022-12-12T22:50:09.870Z,-0.80
2022-12-12T22:54:11.765Z,-0.90
2022-12-12T22:58:17.450Z,-0.80
2022-12-12T23:02:24.781Z,-0.80
2022-12-12T23:06:30.307Z,-0.70
2022-12-12T23:10:32.274Z,-0.80
2022-12-12T23:14:34.141Z,-0.80
2022-12-12T23:18:37.186Z,-0.80
2022-12-12T23:22:39.080Z,-0.80
2022-12-12T23:26:40.940Z,-0.90
2022-12-12T23:30:42.923Z,-0.90
2022-12-12T23:34:45.439Z,-0.90
2022-12-12T23:38:47.330Z,-1.00
2022-12-12T23:42:49.140Z,-1.00
2022-12-12T23:46:51.270Z,-1.00
2022-12-12T23:50:53.110Z,-1.00
2022-12-12T23:54:54.999Z,-0.90
2022-12-12T23:58:57.223Z,-1.00
